Time;durP1;ratioP1;P1;durP2;ratioP2;P2;SDS_P1;SDS_P2;PMS_P1;PMS_P2;Temp;Humidity;BMP_temperature;BMP_pressure;BME280_temperature;BME280_humidity;BME280_pressure;Samples;Min_cycle;Max_cycle;Signal;HPM_P1;HPM_P2
2021/10/20 00:01:20;;;;;;;0.00;0.00;;;;;;;12.11;75.96;100226.31;5033110;28;20036;-82
2021/10/20 00:03:45;;;;;;;0.00;0.00;;;;;;;12.11;76.34;100214.81;5032576;28;20104;-82
2021/10/20 00:06:11;;;;;;;0.00;0.00;;;;;;;12.10;76.52;100219.34;5032726;28;20172;-83
2021/10/20 00:08:36;;;;;;;0.00;0.00;;;;;;;12.09;76.67;100208.88;5032492;28;20080;-83
2021/10/20 00:11:02;;;;;;;0.00;0.00;;;;;;;12.09;76.22;100212.34;5032244;28;20065;-80
2021/10/20 00:13:27;;;;;;;0.00;0.00;;;;;;;12.08;76.16;100204.59;5032313;28;20033;-80
2021/10/20 00:15:54;;;;;;;0.00;0.00;;;;;;;12.07;76.65;100197.59;5032347;28;20037;-78
2021/10/20 00:18:19;;;;;;;0.00;0.00;;;;;;;12.10;76.55;100205.13;5031594;28;20021;-78
2021/10/20 00:20:45;;;;;;;0.30;0.30;;;;;;;11.98;77.15;100184.66;5019254;28;20030;-77
2021/10/20 00:23:12;;;;;;;0.00;0.00;;;;;;;12.05;76.88;100197.88;5012546;28;20030;-79
2021/10/20 00:25:39;;;;;;;0.08;0.08;;;;;;;12.03;77.24;100197.31;5022701;28;20048;-77
2021/10/20 00:28:05;;;;;;;0.00;0.00;;;;;;;12.00;77.31;100190.59;5032974;28;20038;-78
2021/10/20 00:30:31;;;;;;;0.00;0.00;;;;;;;11.94;77.40;100182.75;5032241;28;20037;-80
2021/10/20 00:32:57;;;;;;;0.10;0.10;;;;;;;11.96;77.79;100178.78;5032282;28;20151;-79
2021/10/20 00:35:22;;;;;;;0.00;0.00;;;;;;;11.92;77.72;100171.47;5031511;28;20037;-77
2021/10/20 00:37:48;;;;;;;0.35;0.35;;;;;;;11.88;77.83;100178.38;5031192;28;20033;-79
2021/10/20 00:40:13;;;;;;;0.13;0.13;;;;;;;11.80;78.09;100180.50;5031881;28;20399;-77
2021/10/20 00:42:39;;;;;;;0.00;0.00;;;;;;;11.71;77.93;100183.91;5031961;28;20018;-82
2021/10/20 00:45:06;;;;;;;0.13;0.13;;;;;;;11.69;78.42;100186.81;5031789;28;20029;-77
2021/10/20 00:47:33;;;;;;;0.00;0.00;;;;;;;11.70;78.19;100188.44;5032965;28;20033;-77
2021/10/20 00:49:58;;;;;;;0.03;0.03;;;;;;;11.65;78.39;100186.53;5031782;28;20041;-80
2021/10/20 00:52:25;;;;;;;0.00;0.00;;;;;;;11.59;78.49;100173.34;5031904;28;20025;-79
2021/10/20 00:54:53;;;;;;;0.22;0.22;;;;;;;11.66;78.54;100184.66;5031584;28;20029;-79
2021/10/20 00:57:21;;;;;;;0.10;0.10;;;;;;;11.62;78.77;100180.84;5032803;28;20029;-78
2021/10/20 00:59:46;;;;;;;0.00;0.00;;;;;;;11.60;78.68;100183.81;5031275;28;20061;-79
2021/10/20 01:02:12;;;;;;;0.05;0.05;;;;;;;11.60;79.06;100181.13;5031703;28;20183;-81
2021/10/20 01:04:38;;;;;;;0.63;0.55;;;;;;;11.57;78.50;100181.66;5030397;28;20500;-81
2021/10/20 01:07:07;;;;;;;0.00;0.00;;;;;;;11.56;79.05;100177.34;5031580;28;20123;-80
2021/10/20 01:09:34;;;;;;;0.00;0.00;;;;;;;11.53;78.93;100172.47;5031351;28;20489;-78
2021/10/20 01:11:59;;;;;;;0.10;0.10;;;;;;;11.49;79.08;100182.09;5031560;28;20037;-79
2021/10/20 01:14:29;;;;;;;0.00;0.00;;;;;;;11.43;79.01;100185.78;5031266;28;20367;-77
2021/10/20 01:16:56;;;;;;;0.10;0.10;;;;;;;11.40;78.53;100192.47;5031284;28;20456;-77
2021/10/20 01:19:22;;;;;;;0.00;0.00;;;;;;;11.33;78.66;100181.16;5031109;28;20029;-77
2021/10/20 01:21:47;;;;;;;0.00;0.00;;;;;;;11.32;79.43;100183.00;5030783;28;20525;-77
2021/10/20 01:24:13;;;;;;;0.00;0.00;;;;;;;11.28;79.67;100189.09;5031249;28;20060;-76
2021/10/20 01:26:39;;;;;;;0.08;0.08;;;;;;;11.19;80.24;100188.75;5030289;28;20018;-78
2021/10/20 01:29:04;;;;;;;0.00;0.00;;;;;;;11.13;81.23;100184.41;5030885;28;20033;-77
2021/10/20 01:31:30;;;;;;;0.93;0.90;;;;;;;11.04;81.53;100181.38;5030661;28;20025;-77
2021/10/20 01:33:55;;;;;;;0.00;0.00;;;;;;;11.00;81.57;100183.75;5031475;28;20033;-77
2021/10/20 01:36:21;;;;;;;0.10;0.10;;;;;;;10.94;81.39;100184.75;5030903;28;20104;-77
2021/10/20 01:38:49;;;;;;;0.98;0.98;;;;;;;10.85;80.43;100179.03;5030672;28;20596;-77
2021/10/20 01:41:14;;;;;;;0.10;0.10;;;;;;;10.84;80.88;100188.13;5030104;28;20072;-78
2021/10/20 01:43:45;;;;;;;0.00;0.00;;;;;;;10.86;80.97;100194.03;5030596;28;20577;-78
2021/10/20 01:46:13;;;;;;;0.20;0.20;;;;;;;10.79;80.85;100196.09;5030666;28;20494;-76
2021/10/20 01:48:39;;;;;;;0.25;0.25;;;;;;;10.76;80.23;100198.44;5030522;28;20026;-75
2021/10/20 01:51:04;;;;;;;0.00;0.00;;;;;;;10.65;80.01;100192.94;5031564;28;20033;-76
2021/10/20 01:53:32;;;;;;;0.85;0.85;;;;;;;10.63;79.75;100191.59;5031774;28;20022;-77
2021/10/20 01:55:57;;;;;;;0.10;0.10;;;;;;;10.48;79.61;100174.28;5030316;28;20060;-75
2021/10/20 01:58:22;;;;;;;0.10;0.10;;;;;;;10.52;79.97;100187.97;5030551;28;20431;-75
2021/10/20 02:00:48;;;;;;;0.10;0.10;;;;;;;10.45;80.02;100179.31;5030185;28;20120;-77
2021/10/20 02:03:13;;;;;;;0.10;0.10;;;;;;;10.51;79.77;100189.00;5030496;28;20112;-77
2021/10/20 02:05:39;;;;;;;0.10;0.10;;;;;;;10.47;79.60;100187.91;5030294;28;20044;-83
2021/10/20 02:08:04;;;;;;;0.00;0.00;;;;;;;10.51;80.05;100195.19;5030203;28;20025;-83
2021/10/20 02:10:30;;;;;;;0.00;0.00;;;;;;;10.53;80.23;100197.59;5029845;28;20029;-80
2021/10/20 02:12:56;;;;;;;0.35;0.35;;;;;;;10.52;80.35;100193.31;5031573;28;20058;-81
2021/10/20 02:15:21;;;;;;;0.00;0.00;;;;;;;10.51;79.70;100195.19;5030288;28;20025;-80
2021/10/20 02:17:47;;;;;;;0.00;0.00;;;;;;;10.53;80.07;100198.44;5030004;28;20087;-81
2021/10/20 02:20:14;;;;;;;0.17;0.17;;;;;;;10.54;79.62;100197.34;5030304;28;20497;-81
2021/10/20 02:22:44;;;;;;;0.00;0.00;;;;;;;10.49;79.69;100191.16;5029781;28;20029;-78
2021/10/20 02:25:10;;;;;;;0.00;0.00;;;;;;;10.47;79.69;100199.41;5031532;28;20032;-79
2021/10/20 02:27:36;;;;;;;0.00;0.00;;;;;;;10.48;79.88;100206.38;5030005;28;20489;-78
2021/10/20 02:30:03;;;;;;;0.47;0.47;;;;;;;10.45;79.99;100206.03;5029978;28;20045;-81
2021/10/20 02:32:29;;;;;;;0.00;0.00;;;;;;;10.43;80.57;100210.84;5030160;28;20040;-82
2021/10/20 02:34:54;;;;;;;0.00;0.00;;;;;;;10.44;80.08;100209.81;5029424;28;20511;-79
2021/10/20 02:37:20;;;;;;;0.00;0.00;;;;;;;10.39;80.58;100213.22;5029526;28;20030;-80
2021/10/20 02:39:45;;;;;;;0.00;0.00;;;;;;;10.36;81.16;100209.16;5030286;28;20100;-82
2021/10/20 02:42:11;;;;;;;0.10;0.10;;;;;;;10.30;80.93;100210.13;5029661;28;20038;-80
2021/10/20 02:44:36;;;;;;;0.08;0.08;;;;;;;10.33;80.80;100214.97;5029703;28;20033;-76
2021/10/20 02:47:02;;;;;;;0.03;0.03;;;;;;;10.31;80.98;100214.38;5029585;28;20107;-76
2021/10/20 02:49:27;;;;;;;0.30;0.30;;;;;;;10.28;80.67;100219.41;5031453;28;20030;-76
2021/10/20 02:51:53;;;;;;;0.00;0.00;;;;;;;10.28;80.38;100216.75;5029287;28;20567;-79
2021/10/20 02:54:19;;;;;;;0.00;0.00;;;;;;;10.23;80.67;100212.16;5029878;28;20041;-81
2021/10/20 02:56:46;;;;;;;0.03;0.03;;;;;;;10.21;80.93;100201.69;5030629;28;20037;-80
2021/10/20 02:59:12;;;;;;;0.00;0.00;;;;;;;10.14;80.83;100201.03;5029370;28;20040;-83
2021/10/20 03:01:37;;;;;;;0.00;0.00;;;;;;;10.17;80.61;100199.75;5029244;28;20072;-82
2021/10/20 03:04:03;;;;;;;0.00;0.00;;;;;;;10.15;80.86;100204.53;5029697;28;20560;-78
2021/10/20 03:06:29;;;;;;;0.00;0.00;;;;;;;10.13;80.90;100201.28;5029264;28;20083;-78
2021/10/20 03:08:54;;;;;;;0.00;0.00;;;;;;;10.12;80.57;100199.66;5031020;28;20030;-75
2021/10/20 03:11:19;;;;;;;0.00;0.00;;;;;;;10.06;80.52;100196.13;5031080;28;20037;-75
2021/10/20 03:13:45;;;;;;;0.00;0.00;;;;;;;10.05;80.33;100197.97;5029121;28;20021;-75
2021/10/20 03:16:10;;;;;;;0.00;0.00;;;;;;;10.01;80.58;100204.03;5046413;28;20464;-77
2021/10/20 03:18:36;;;;;;;0.00;0.00;;;;;;;9.98;80.77;100202.66;5029452;28;20028;-78
2021/10/20 03:21:02;;;;;;;0.00;0.00;;;;;;;9.90;80.28;100192.41;5028911;28;20453;-76
2021/10/20 03:23:27;;;;;;;0.30;0.30;;;;;;;9.84;80.32;100191.50;5029483;28;20116;-77
2021/10/20 03:25:52;;;;;;;0.03;0.03;;;;;;;9.81;80.48;100193.84;5030317;28;20116;-77
2021/10/20 03:28:18;;;;;;;0.00;0.00;;;;;;;9.73;79.82;100195.88;5030966;28;20120;-80
2021/10/20 03:30:43;;;;;;;0.00;0.00;;;;;;;9.68;80.10;100200.31;5032781;28;20033;-81
2021/10/20 03:33:09;;;;;;;0.00;0.00;;;;;;;9.59;79.72;100190.03;5033005;28;20029;-82
2021/10/20 03:35:34;;;;;;;0.00;0.00;;;;;;;9.54;80.08;100197.13;5033045;28;20033;-77
2021/10/20 03:38:00;;;;;;;0.03;0.03;;;;;;;9.50;79.73;100186.13;5034500;28;20030;-76
2021/10/20 03:40:25;;;;;;;0.00;0.00;;;;;;;9.43;79.71;100186.25;5032773;28;20049;-76
2021/10/20 03:42:51;;;;;;;0.10;0.10;;;;;;;9.35;79.61;100185.84;5032934;28;20036;-77
2021/10/20 03:45:16;;;;;;;0.00;0.00;;;;;;;9.31;79.76;100187.38;5032379;28;20041;-77
2021/10/20 03:47:43;;;;;;;0.00;0.00;;;;;;;9.24;79.80;100184.84;5032902;28;20021;-76
2021/10/20 03:50:09;;;;;;;0.10;0.10;;;;;;;9.22;79.20;100190.44;5033411;28;20129;-77
2021/10/20 03:52:34;;;;;;;0.00;0.00;;;;;;;9.20;79.35;100194.41;5032636;28;20026;-76
2021/10/20 03:55:00;;;;;;;0.00;0.00;;;;;;;9.13;79.46;100192.69;5034000;28;20044;-76
2021/10/20 03:57:26;;;;;;;0.00;0.00;;;;;;;9.12;79.74;100199.06;5032796;28;20049;-76
2021/10/20 03:59:51;;;;;;;0.00;0.00;;;;;;;9.11;79.25;100193.97;5032534;28;20041;-80
2021/10/20 04:02:17;;;;;;;0.00;0.00;;;;;;;9.12;79.14;100195.59;5032142;28;20048;-76
2021/10/20 04:04:42;;;;;;;0.03;0.03;;;;;;;9.05;79.52;100189.59;5032534;28;20033;-75
2021/10/20 04:07:08;;;;;;;0.00;0.00;;;;;;;9.01;79.20;100194.59;5032738;28;20033;-81
2021/10/20 04:09:33;;;;;;;0.00;0.00;;;;;;;8.96;79.15;100205.97;5032423;28;20098;-74
2021/10/20 04:11:58;;;;;;;0.00;0.00;;;;;;;8.89;78.99;100197.28;5033708;28;20549;-71
2021/10/20 04:14:24;;;;;;;0.00;0.00;;;;;;;8.91;79.47;100208.53;5033659;28;20044;-78
2021/10/20 04:16:49;;;;;;;0.00;0.00;;;;;;;8.85;79.08;100201.47;5029526;28;20036;-77
2021/10/20 04:19:15;;;;;;;0.00;0.00;;;;;;;8.84;79.15;100207.03;5032274;28;20468;-75
2021/10/20 04:21:40;;;;;;;0.00;0.00;;;;;;;8.81;79.76;100205.63;5032327;28;20101;-80
2021/10/20 04:24:06;;;;;;;0.00;0.00;;;;;;;8.79;79.60;100211.22;5047290;28;20029;-78
2021/10/20 04:26:31;;;;;;;0.00;0.00;;;;;;;8.72;79.69;100209.72;5031594;28;20025;-81
2021/10/20 04:28:57;;;;;;;0.00;0.00;;;;;;;8.70;79.52;100201.16;5046956;28;20116;-83
2021/10/20 04:31:22;;;;;;;0.00;0.00;;;;;;;8.73;79.95;100211.34;5048085;28;20405;-82
2021/10/20 04:33:48;;;;;;;0.15;0.15;;;;;;;8.68;79.96;100200.56;5031669;28;20033;-82
2021/10/20 04:36:13;;;;;;;0.00;0.00;;;;;;;8.71;80.41;100205.44;5032029;28;20037;-83
2021/10/20 04:38:39;;;;;;;0.00;0.00;;;;;;;8.65;80.08;100215.19;5048607;28;20037;-83
2021/10/20 04:41:04;;;;;;;0.00;0.00;;;;;;;8.65;80.84;100212.50;5047259;28;20111;-83
2021/10/20 04:43:30;;;;;;;0.10;0.10;;;;;;;8.67;81.16;100207.75;5032107;28;20065;-83
2021/10/20 04:45:55;;;;;;;0.00;0.00;;;;;;;8.64;81.45;100201.03;5031789;28;20068;-83
2021/10/20 04:48:22;;;;;;;0.00;0.00;;;;;;;8.61;82.00;100193.50;5031801;28;20429;-83
2021/10/20 04:50:47;;;;;;;0.00;0.00;;;;;;;8.70;81.64;100199.28;5047794;28;20131;-83
2021/10/20 04:53:13;;;;;;;0.00;0.00;;;;;;;8.72;81.30;100201.72;5048251;28;20120;-83
2021/10/20 04:55:38;;;;;;;0.22;0.22;;;;;;;8.74;81.12;100194.28;5031401;28;20444;-83
2021/10/20 04:58:07;;;;;;;0.00;0.00;;;;;;;8.74;80.79;100203.13;5031276;28;20026;-84
2021/10/20 05:00:35;;;;;;;0.00;0.00;;;;;;;8.72;80.90;100196.41;5048125;28;20120;-84
2021/10/20 05:03:00;;;;;;;0.00;0.00;;;;;;;8.64;80.32;100187.72;5048146;28;20029;-83
2021/10/20 05:05:27;;;;;;;0.00;0.00;;;;;;;8.65;79.87;100197.34;5031654;28;20060;-83
2021/10/20 05:07:54;;;;;;;0.15;0.15;;;;;;;8.66;79.76;100206.13;5047814;28;20053;-83
2021/10/20 05:10:21;;;;;;;0.00;0.00;;;;;;;8.63;79.61;100201.28;5031418;28;20037;-83
2021/10/20 05:12:47;;;;;;;0.00;0.00;;;;;;;8.67;79.51;100199.75;5047812;28;20064;-83
2021/10/20 05:15:13;;;;;;;0.00;0.00;;;;;;;8.80;79.20;100209.34;5048214;28;20124;-83
2021/10/20 05:17:40;;;;;;;0.00;0.00;;;;;;;8.83;79.43;100205.41;5047859;28;20082;-83
2021/10/20 05:20:07;;;;;;;0.00;0.00;;;;;;;8.90;78.88;100208.75;5047608;28;20029;-83
2021/10/20 05:22:34;;;;;;;0.00;0.00;;;;;;;8.94;78.57;100209.91;5047739;28;20030;-82
2021/10/20 05:25:00;;;;;;;0.00;0.00;;;;;;;8.85;78.02;100197.97;5047526;28;20509;-81
2021/10/20 05:27:26;;;;;;;0.00;0.00;;;;;;;8.94;77.84;100207.25;5047862;28;20030;-81
2021/10/20 05:29:51;;;;;;;0.00;0.00;;;;;;;8.95;77.07;100219.53;5030876;28;20036;-81
2021/10/20 05:32:17;;;;;;;0.00;0.00;;;;;;;8.92;77.82;100222.66;5031056;28;20029;-82
2021/10/20 05:34:42;;;;;;;0.00;0.00;;;;;;;8.94;77.74;100229.38;5047562;28;20029;-82
2021/10/20 05:37:08;;;;;;;0.00;0.00;;;;;;;8.96;77.71;100229.16;5047220;28;20033;-81
2021/10/20 05:39:33;;;;;;;0.20;0.20;;;;;;;8.94;77.51;100229.38;5030940;28;20034;-82
2021/10/20 05:41:59;;;;;;;0.85;0.73;;;;;;;8.94;77.57;100226.72;5047248;28;20160;-83
2021/10/20 05:44:24;;;;;;;0.03;0.03;;;;;;;8.97;77.44;100228.09;5030834;28;20036;-82
2021/10/20 05:46:50;;;;;;;0.15;0.15;;;;;;;9.00;77.21;100229.50;5030574;28;20033;-81
2021/10/20 05:49:16;;;;;;;0.00;0.00;;;;;;;9.00;77.58;100237.53;5030776;28;20040;-82
2021/10/20 05:51:41;;;;;;;0.00;0.00;;;;;;;9.03;77.42;100234.38;5030448;28;20378;-81
2021/10/20 05:54:07;;;;;;;0.00;0.00;;;;;;;9.07;77.72;100243.50;5030536;28;20029;-83
2021/10/20 05:56:32;;;;;;;0.10;0.10;;;;;;;9.09;77.95;100242.25;5047153;28;20612;-82
2021/10/20 05:58:58;;;;;;;0.45;0.17;;;;;;;9.11;78.02;100242.81;5046827;28;20394;-83
2021/10/20 06:01:23;;;;;;;0.00;0.00;;;;;;;9.11;77.63;100242.81;5047278;28;20474;-82
2021/10/20 06:03:51;;;;;;;0.00;0.00;;;;;;;9.17;77.88;100245.56;5046884;28;20036;-83
2021/10/20 06:06:17;;;;;;;0.00;0.00;;;;;;;9.25;77.99;100256.69;5031075;28;20106;-83
2021/10/20 06:08:43;;;;;;;0.00;0.00;;;;;;;9.31;77.71;100257.59;5031695;28;20033;-83
2021/10/20 06:11:08;;;;;;;0.10;0.10;;;;;;;9.42;78.00;100259.44;5031462;28;20038;-83
2021/10/20 06:13:34;;;;;;;0.10;0.10;;;;;;;9.50;78.01;100252.09;5047156;28;20119;-83
2021/10/20 06:15:59;;;;;;;0.00;0.00;;;;;;;9.63;77.72;100258.97;5030239;28;20040;-83
2021/10/20 06:18:25;;;;;;;0.00;0.00;;;;;;;9.67;78.09;100244.91;5046924;28;20025;-83
2021/10/20 06:20:50;;;;;;;0.00;0.00;;;;;;;9.81;78.27;100237.41;5046656;28;20409;-82
2021/10/20 06:23:16;;;;;;;0.00;0.00;;;;;;;10.07;77.79;100252.00;5047009;28;20036;-82
2021/10/20 06:25:41;;;;;;;0.25;0.25;;;;;;;10.23;77.33;100249.59;5046823;28;20128;-81
2021/10/20 06:28:07;;;;;;;0.10;0.10;;;;;;;10.37;77.25;100252.75;5029921;28;20116;-81
2021/10/20 06:30:32;;;;;;;0.00;0.00;;;;;;;10.51;77.04;100258.56;5030219;28;20030;-81
2021/10/20 06:32:58;;;;;;;0.00;0.00;;;;;;;10.71;76.48;100264.19;5030110;28;20087;-82
2021/10/20 06:35:23;;;;;;;0.00;0.00;;;;;;;10.81;75.90;100250.13;5030295;28;20376;-82
2021/10/20 06:37:53;;;;;;;0.00;0.00;;;;;;;11.02;76.17;100261.09;5046664;28;20429;-82
2021/10/20 06:40:19;;;;;;;0.00;0.00;;;;;;;11.21;75.46;100258.94;5046595;28;20049;-82
2021/10/20 06:42:44;;;;;;;1.65;0.65;;;;;;;11.40;74.92;100267.47;5046574;28;20079;-82
2021/10/20 06:45:10;;;;;;;0.00;0.00;;;;;;;11.61;74.55;100281.88;5046324;28;20033;-81
2021/10/20 06:47:36;;;;;;;0.00;0.00;;;;;;;11.74;74.04;100275.28;5029955;28;20390;-81
2021/10/20 06:50:03;;;;;;;0.30;0.30;;;;;;;11.91;74.03;100277.88;5046437;28;20518;-82
2021/10/20 06:52:28;;;;;;;0.10;0.10;;;;;;;12.05;73.17;100264.88;5029841;28;20033;-82
2021/10/20 06:54:54;;;;;;;0.00;0.00;;;;;;;12.21;72.25;100278.44;5046179;28;20489;-82
2021/10/20 06:57:19;;;;;;;0.00;0.00;;;;;;;12.35;72.07;100276.13;5029697;28;20083;-82
2021/10/20 06:59:45;;;;;;;0.00;0.00;;;;;;;12.49;71.87;100275.41;5046470;28;20115;-82
2021/10/20 07:02:10;;;;;;;0.60;0.43;;;;;;;12.60;71.43;100276.28;5029202;28;20029;-82
2021/10/20 07:04:36;;;;;;;0.03;0.03;;;;;;;12.71;71.37;100274.47;5029395;28;20037;-81
2021/10/20 07:07:01;;;;;;;0.00;0.00;;;;;;;12.81;70.81;100279.09;5045939;28;20030;-82
2021/10/20 07:09:27;;;;;;;0.00;0.00;;;;;;;12.92;70.73;100282.63;5029577;28;20033;-82
2021/10/20 07:11:52;;;;;;;0.20;0.20;;;;;;;13.02;70.31;100285.34;5045944;28;20044;-82
2021/10/20 07:14:18;;;;;;;0.60;0.60;;;;;;;13.08;70.08;100281.63;5029486;28;20486;-82
2021/10/20 07:16:43;;;;;;;0.00;0.00;;;;;;;13.15;70.22;100281.41;5046163;28;20048;-82
2021/10/20 07:19:09;;;;;;;0.08;0.08;;;;;;;13.22;70.26;100279.28;5029197;28;20076;-82
2021/10/20 07:21:35;;;;;;;0.63;0.63;;;;;;;13.33;70.43;100279.28;5029519;28;20608;-82
2021/10/20 07:24:02;;;;;;;0.15;0.15;;;;;;;13.47;70.15;100283.13;5045705;28;20117;-81
2021/10/20 07:26:28;;;;;;;0.75;0.75;;;;;;;13.59;70.40;100296.34;5029420;28;20049;-81
2021/10/20 07:28:54;;;;;;;0.10;0.10;;;;;;;13.66;70.39;100282.63;5045814;28;20060;-82
2021/10/20 07:31:19;;;;;;;0.30;0.30;;;;;;;13.82;70.50;100288.84;5046005;28;20029;-82
2021/10/20 07:33:45;;;;;;;0.43;0.43;;;;;;;13.95;70.34;100287.53;5045905;28;20029;-82
2021/10/20 07:36:10;;;;;;;0.10;0.10;;;;;;;14.05;69.62;100284.84;5045728;28;20610;-83
2021/10/20 07:38:36;;;;;;;0.30;0.30;;;;;;;14.18;69.34;100281.59;5029368;28;20380;-84
2021/10/20 07:41:02;;;;;;;0.00;0.00;;;;;;;14.33;68.83;100283.50;5028707;28;20135;-82
2021/10/20 07:43:29;;;;;;;0.10;0.10;;;;;;;14.43;68.50;100273.78;5029151;28;20144;-82
2021/10/20 07:45:54;;;;;;;1.23;1.23;;;;;;;14.52;66.83;100275.66;5029041;28;20087;-80
2021/10/20 07:48:20;;;;;;;0.10;0.10;;;;;;;14.56;66.63;100276.75;5045773;28;20021;-82
2021/10/20 07:50:45;;;;;;;0.22;0.22;;;;;;;14.53;65.73;100282.66;5045555;28;20124;-83
2021/10/20 07:53:10;;;;;;;0.17;0.17;;;;;;;14.56;66.41;100276.75;5045331;28;20031;-82
2021/10/20 07:55:36;;;;;;;0.10;0.10;;;;;;;14.58;65.96;100276.47;5045773;28;20067;-82
2021/10/20 07:58:01;;;;;;;0.28;0.28;;;;;;;14.65;66.62;100278.88;5028963;28;20397;-81
2021/10/20 08:00:27;;;;;;;0.03;0.03;;;;;;;14.64;65.59;100277.28;5045743;28;20044;-81
2021/10/20 08:02:54;;;;;;;0.30;0.30;;;;;;;14.57;64.38;100281.06;5028848;28;20038;-83
2021/10/20 08:05:21;;;;;;;0.25;0.25;;;;;;;14.57;64.42;100281.06;5029131;28;20045;-82
2021/10/20 08:07:47;;;;;;;0.10;0.10;;;;;;;14.53;64.24;100269.19;5029068;28;20025;-82
2021/10/20 08:10:17;;;;;;;0.10;0.10;;;;;;;14.60;63.92;100268.94;5028967;28;20469;-83
2021/10/20 08:12:43;;;;;;;0.20;0.20;;;;;;;14.64;64.17;100271.88;5045868;28;20086;-83
2021/10/20 08:15:10;;;;;;;0.35;0.35;;;;;;;14.68;63.69;100268.41;5047842;28;20021;-83
2021/10/20 08:17:37;;;;;;;1.20;0.43;;;;;;;14.75;63.05;100281.56;5049033;28;20509;-82
2021/10/20 08:20:05;;;;;;;0.13;0.13;;;;;;;14.70;62.42;100268.91;5032301;28;20497;-82
2021/10/20 08:22:31;;;;;;;0.30;0.30;;;;;;;14.66;62.03;100275.13;5048694;28;20033;-84
2021/10/20 08:24:57;;;;;;;0.35;0.35;;;;;;;14.71;61.70;100267.06;5032115;28;20036;-84
2021/10/20 08:27:22;;;;;;;0.20;0.20;;;;;;;14.72;61.97;100274.03;5049019;28;20033;-84
2021/10/20 08:29:48;;;;;;;1.08;0.32;;;;;;;14.70;61.25;100260.06;5032312;28;20033;-81
2021/10/20 08:32:13;;;;;;;0.00;0.00;;;;;;;14.86;61.18;100276.97;5048803;28;20043;-83
2021/10/20 08:34:39;;;;;;;0.00;0.00;;;;;;;14.89;60.95;100271.00;5032211;28;20409;-83
2021/10/20 08:37:04;;;;;;;0.08;0.08;;;;;;;14.98;62.07;100269.38;5048539;28;20025;-81
2021/10/20 08:39:30;;;;;;;0.28;0.28;;;;;;;15.02;60.14;100275.81;5032072;28;20508;-82
2021/10/20 08:41:58;;;;;;;0.10;0.10;;;;;;;15.05;59.89;100272.59;5031686;28;20049;-82
2021/10/20 08:44:23;;;;;;;0.10;0.10;;;;;;;15.08;59.99;100275.81;5032040;28;20125;-82
2021/10/20 08:46:52;;;;;;;0.13;0.13;;;;;;;15.09;60.13;100272.03;5031999;28;20061;-82
2021/10/20 08:49:19;;;;;;;1.20;1.10;;;;;;;15.14;61.24;100280.91;5048327;28;20029;-82
2021/10/20 08:51:45;;;;;;;0.25;0.25;;;;;;;15.19;59.82;100280.88;5031941;28;20128;-82
2021/10/20 08:54:11;;;;;;;0.30;0.30;;;;;;;15.12;59.08;100276.88;5031621;28;20030;-82
2021/10/20 08:56:37;;;;;;;1.02;1.02;;;;;;;15.07;58.71;100261.53;5031831;28;20029;-82
2021/10/20 08:59:03;;;;;;;0.10;0.10;;;;;;;15.13;58.46;100268.50;5048111;28;20083;-82
2021/10/20 09:01:28;;;;;;;0.20;0.20;;;;;;;15.20;59.68;100269.00;5031704;28;20053;-82
2021/10/20 09:03:54;;;;;;;0.17;0.17;;;;;;;15.29;60.13;100260.34;5048272;28;20059;-82
2021/10/20 09:06:19;;;;;;;0.00;0.00;;;;;;;15.40;59.95;100256.50;5031445;28;20025;-82
2021/10/20 09:08:46;;;;;;;0.15;0.15;;;;;;;15.52;58.30;100259.66;5031605;28;20470;-82
2021/10/20 09:11:35;;;;;;;0.68;0.63;;;;;;;15.52;57.39;100254.28;5047977;28;20037;-81
2021/10/20 09:14:14;;;;;;;0.10;0.10;;;;;;;15.63;57.02;100259.63;5047995;28;20025;-81
2021/10/20 09:16:43;;;;;;;0.50;0.50;;;;;;;15.69;57.11;100258.50;5031501;28;20029;-80
2021/10/20 09:19:32;;;;;;;0.30;0.30;;;;;;;15.71;56.68;100248.25;5030987;28;20022;-81
2021/10/20 09:22:05;;;;;;;0.10;0.10;;;;;;;15.74;55.34;100253.06;5031077;28;20037;-81
2021/10/20 09:24:37;;;;;;;0.25;0.25;;;;;;;15.75;56.60;100243.88;5031300;28;20056;-82
2021/10/20 09:27:05;;;;;;;0.10;0.10;;;;;;;15.80;56.58;100238.44;5030379;28;20044;-81
2021/10/20 09:29:33;;;;;;;0.20;0.20;;;;;;;15.87;55.38;100242.75;5031173;28;20026;-81
2021/10/20 09:31:59;;;;;;;0.10;0.10;;;;;;;15.94;55.69;100238.66;5047648;28;20025;-81
2021/10/20 09:34:35;;;;;;;1.98;0.40;;;;;;;15.98;55.02;100231.59;5047795;28;20387;-81
2021/10/20 09:37:03;;;;;;;0.25;0.25;;;;;;;16.03;53.87;100230.75;5047554;28;20029;-82
2021/10/20 09:39:29;;;;;;;0.10;0.10;;;;;;;16.07;54.13;100234.50;5047570;28;20029;-81
2021/10/20 09:42:05;;;;;;;0.10;0.10;;;;;;;16.00;53.99;100217.81;5030800;28;20508;-81
2021/10/20 09:44:51;;;;;;;1.02;0.52;;;;;;;16.09;54.05;100226.94;5047675;28;20030;-81
2021/10/20 09:47:18;;;;;;;6.85;1.33;;;;;;;16.07;52.61;100221.00;5047401;28;20034;-82
2021/10/20 09:49:54;;;;;;;0.38;0.38;;;;;;;16.06;52.66;100222.09;5047418;28;20030;-83
2021/10/20 09:52:22;;;;;;;0.20;0.20;;;;;;;16.09;50.54;100224.22;5047283;28;20505;-83
2021/10/20 09:54:49;;;;;;;0.00;0.00;;;;;;;16.13;49.03;100219.84;5014508;28;20060;-83
2021/10/20 09:57:15;;;;;;;0.08;0.08;;;;;;;16.16;48.78;100216.59;5030416;28;20025;-83
2021/10/20 09:59:42;;;;;;;0.08;0.08;;;;;;;16.21;48.30;100214.94;5047289;28;20029;-83
2021/10/20 10:02:09;;;;;;;0.00;0.00;;;;;;;16.27;49.38;100217.31;5030377;28;20048;-83
2021/10/20 10:04:37;;;;;;;0.10;0.10;;;;;;;16.32;48.88;100221.88;5047151;28;20445;-83
2021/10/20 10:07:03;;;;;;;0.10;0.10;;;;;;;16.29;48.31;100217.81;5030438;28;20039;-82
2021/10/20 10:09:29;;;;;;;0.10;0.10;;;;;;;16.32;48.56;100214.56;5030442;28;20484;-83
2021/10/20 10:11:59;;;;;;;0.93;0.93;;;;;;;16.34;48.19;100206.16;5030641;28;20049;-83
2021/10/20 10:14:47;;;;;;;0.10;0.10;;;;;;;16.37;48.35;100205.59;5046788;28;20037;-83
2021/10/20 10:17:19;;;;;;;0.10;0.10;;;;;;;16.42;48.10;100197.44;5035698;28;20502;-83
2021/10/20 10:19:45;;;;;;;8.95;0.63;;;;;;;16.47;47.63;100199.28;5030255;28;20140;-83
2021/10/20 10:22:21;;;;;;;0.10;0.10;;;;;;;16.54;47.04;100194.34;5029875;28;20410;-83
2021/10/20 10:24:47;;;;;;;0.10;0.10;;;;;;;16.56;45.60;100191.34;5046616;28;20029;-83
2021/10/20 10:27:13;;;;;;;0.10;0.10;;;;;;;16.60;45.30;100197.78;5046333;28;20076;-83
2021/10/20 10:30:17;;;;;;;0.10;0.10;;;;;;;16.63;45.04;100189.13;5030003;28;20036;-83
2021/10/20 10:32:46;;;;;;;0.65;0.20;;;;;;;16.67;44.13;100182.03;5023521;28;20129;-83
2021/10/20 10:35:12;;;;;;;0.10;0.10;;;;;;;16.68;44.52;100178.25;5029700;28;20034;-83
2021/10/20 10:37:38;;;;;;;0.20;0.20;;;;;;;16.70;44.75;100173.38;5045632;28;20544;-83
2021/10/20 10:40:31;;;;;;;0.05;0.05;;;;;;;16.74;44.43;100177.09;5046112;28;20067;-83
2021/10/20 10:43:03;;;;;;;0.03;0.03;;;;;;;16.77;44.51;100171.13;5046589;28;20065;-83
2021/10/20 10:45:29;;;;;;;0.47;0.47;;;;;;;16.83;44.06;100179.16;5029934;28;20529;-82
2021/10/20 10:48:04;;;;;;;0.10;0.10;;;;;;;16.83;45.24;100162.94;5029883;28;20029;-83
2021/10/20 10:50:45;;;;;;;0.28;0.28;;;;;;;16.91;45.21;100162.31;5046387;28;20044;-82
2021/10/20 10:53:26;;;;;;;0.10;0.10;;;;;;;16.94;44.72;100164.44;5029581;28;20500;-83
2021/10/20 10:56:21;;;;;;;0.10;0.10;;;;;;;16.89;44.46;100164.47;5046346;28;20032;-82
2021/10/20 10:59:08;;;;;;;0.10;0.10;;;;;;;16.90;44.39;100163.41;5011362;28;20041;-83
2021/10/20 11:01:48;;;;;;;0.73;0.73;;;;;;;16.78;45.02;100132.22;5046353;28;20031;-82
2021/10/20 11:04:24;;;;;;;0.10;0.10;;;;;;;16.92;45.56;100148.53;5029611;28;20087;-83
2021/10/20 11:06:52;;;;;;;0.10;0.10;;;;;;;16.95;45.70;100142.56;5046304;28;20040;-83
2021/10/20 11:09:21;;;;;;;0.25;0.25;;;;;;;16.99;46.32;100134.66;5029457;28;20040;-82
2021/10/20 11:11:53;;;;;;;0.10;0.10;;;;;;;17.02;45.26;100136.78;5046236;28;20467;-83
2021/10/20 11:14:27;;;;;;;0.10;0.10;;;;;;;17.00;44.48;100130.06;5029216;28;20029;-83
2021/10/20 11:16:57;;;;;;;0.30;0.30;;;;;;;17.00;44.99;100132.75;5029483;28;20053;-82
2021/10/20 11:19:23;;;;;;;0.10;0.10;;;;;;;17.05;45.34;100133.50;5045710;28;20060;-84
2021/10/20 11:21:49;;;;;;;0.10;0.10;;;;;;;16.99;44.69;100123.84;5029427;28;20028;-83
2021/10/20 11:24:15;;;;;;;0.40;0.38;;;;;;;17.00;45.03;100122.75;5045606;28;20406;-83
2021/10/20 11:26:45;;;;;;;0.10;0.10;;;;;;;16.91;44.89;100111.75;5029130;28;20668;-83